Time;durP1;ratioP1;P1;durP2;ratioP2;P2;SDS_P1;SDS_P2;PMS_P1;PMS_P2;Temp;Humidity;BMP_temperature;BMP_pressure;BME280_temperature;BME280_humidity;BME280_pressure;Samples;Min_cycle;Max_cycle;Signal;HPM_P1;HPM_P2
2023/04/22 00:01:16;;;;;;;11.05;9.80;;;11.80;99.90;;;;;;4883156;28;90097;-33
2023/04/22 00:03:43;;;;;;;11.40;9.77;;;11.90;99.90;;;;;;4883156;28;90477;-34
2023/04/22 00:06:09;;;;;;;12.55;10.23;;;11.80;99.90;;;;;;4883339;28;89122;-33
2023/04/22 00:08:35;;;;;;;15.05;9.65;;;11.80;99.90;;;;;;4882993;28;88783;-33
2023/04/22 00:11:01;;;;;;;10.07;9.05;;;11.80;99.90;;;;;;4883369;28;88422;-33
2023/04/22 00:13:26;;;;;;;11.30;8.98;;;11.70;99.90;;;;;;4882806;28;89878;-34
2023/04/22 00:15:52;;;;;;;10.68;8.60;;;11.60;99.90;;;;;;4883672;28;90226;-32
2023/04/22 00:18:18;;;;;;;11.63;10.27;;;11.60;99.90;;;;;;4882982;28;89416;-33
2023/04/22 00:20:44;;;;;;;11.35;9.18;;;11.60;99.90;;;;;;4883629;28;89582;-33
2023/04/22 00:23:10;;;;;;;9.63;8.65;;;11.50;99.90;;;;;;4882692;28;90264;-38
2023/04/22 00:25:36;;;;;;;10.63;9.38;;;11.40;99.90;;;;;;4882787;28;90587;-37
2023/04/22 00:28:01;;;;;;;9.70;8.80;;;11.40;99.90;;;;;;4883219;28;90231;-33
2023/04/22 00:30:27;;;;;;;11.65;8.02;;;11.40;99.90;;;;;;4883184;28;89452;-33
2023/04/22 00:32:53;;;;;;;57.75;14.60;;;11.60;99.90;;;;;;4883139;28;91095;-32
2023/04/22 00:35:18;;;;;;;28.88;11.88;;;11.50;99.90;;;;;;4882519;28;89354;-32
2023/04/22 00:37:44;;;;;;;8.45;7.70;;;11.30;99.90;;;;;;4882550;28;88681;-34
2023/04/22 00:40:10;;;;;;;9.93;8.75;;;11.20;99.90;;;;;;4883254;28;88813;-34
2023/04/22 00:42:36;;;;;;;15.27;9.30;;;11.00;99.90;;;;;;4883297;28;90226;-34
2023/04/22 00:45:02;;;;;;;11.05;9.38;;;10.90;99.90;;;;;;4883778;28;90138;-34
2023/04/22 00:47:31;;;;;;;12.20;9.38;;;10.80;99.90;;;;;;4882230;28;89711;-32
2023/04/22 00:49:57;;;;;;;12.88;9.50;;;10.70;99.90;;;;;;4882362;28;89373;-33
2023/04/22 00:52:23;;;;;;;15.55;10.38;;;10.70;99.90;;;;;;4882234;28;89116;-38
2023/04/22 00:54:50;;;;;;;12.13;9.27;;;10.70;99.90;;;;;;4882534;28;89794;-35
2023/04/22 00:57:16;;;;;;;12.20;10.38;;;10.70;99.90;;;;;;4882020;28;88469;-32
2023/04/22 00:59:42;;;;;;;9.93;8.93;;;10.70;99.90;;;;;;4882845;28;89797;-36
2023/04/22 01:02:08;;;;;;;11.63;9.70;;;10.70;99.90;;;;;;4881800;28;90280;-35
2023/04/22 01:04:34;;;;;;;13.75;10.43;;;10.90;99.90;;;;;;4882336;28;89857;-38
2023/04/22 01:07:00;;;;;;;12.27;11.07;;;10.90;99.90;;;;;;4882764;28;89858;-34
2023/04/22 01:09:26;;;;;;;13.48;11.15;;;10.70;99.90;;;;;;4881948;28;90320;-33
2023/04/22 01:11:52;;;;;;;16.17;11.73;;;10.60;99.90;;;;;;4882256;28;88758;-37
2023/04/22 01:14:18;;;;;;;13.52;10.43;;;10.60;99.90;;;;;;4881345;28;90782;-33
2023/04/22 01:16:45;;;;;;;13.05;11.70;;;10.50;99.90;;;;;;4881171;28;89364;-35
2023/04/22 01:19:11;;;;;;;15.48;12.70;;;10.50;99.90;;;;;;4882072;28;88634;-36
2023/04/22 01:21:39;;;;;;;11.82;10.73;;;10.50;99.90;;;;;;4881575;28;90698;-32
2023/04/22 01:24:06;;;;;;;12.18;9.65;;;10.40;99.90;;;;;;4881140;28;91320;-35
2023/04/22 01:26:31;;;;;;;14.57;10.40;;;10.40;99.90;;;;;;4881576;28;89197;-34
2023/04/22 01:28:57;;;;;;;11.85;10.52;;;10.40;99.90;;;;;;4882166;28;88390;-34
2023/04/22 01:31:23;;;;;;;10.93;9.75;;;10.30;99.90;;;;;;4881711;28;90297;-32
2023/04/22 01:33:49;;;;;;;13.02;11.45;;;10.30;99.90;;;;;;4882579;28;89666;-34
2023/04/22 01:36:16;;;;;;;11.93;10.23;;;10.40;99.90;;;;;;4881238;28;89072;-36
2023/04/22 01:38:41;;;;;;;13.25;11.18;;;10.30;99.90;;;;;;4881032;28;89224;-35
2023/04/22 01:41:07;;;;;;;13.18;11.07;;;10.30;99.90;;;;;;4880841;28;90179;-32
2023/04/22 01:43:33;;;;;;;11.95;10.70;;;10.30;99.90;;;;;;4881119;28;89721;-34
2023/04/22 01:46:04;;;;;;;13.90;12.05;;;10.30;99.90;;;;;;4881934;28;90038;-33
2023/04/22 01:48:30;;;;;;;12.48;10.68;;;10.30;99.90;;;;;;4880835;28;88052;-32
2023/04/22 01:50:55;;;;;;;12.25;11.10;;;10.30;99.90;;;;;;4881602;28;90754;-34
2023/04/22 01:53:21;;;;;;;12.40;11.15;;;10.20;99.90;;;;;;4880585;28;89886;-33
2023/04/22 01:55:47;;;;;;;11.80;10.68;;;10.20;99.90;;;;;;4881736;28;89629;-34
2023/04/22 01:58:13;;;;;;;12.90;10.95;;;10.30;99.90;;;;;;4880574;28;88860;-35
2023/04/22 02:00:38;;;;;;;13.73;11.38;;;10.20;99.90;;;;;;4881086;28;90195;-32
2023/04/22 02:03:05;;;;;;;13.82;11.73;;;10.20;99.90;;;;;;4880690;28;90360;-32
2023/04/22 02:05:31;;;;;;;13.20;11.93;;;10.20;99.90;;;;;;4880599;28;90113;-35
2023/04/22 02:07:56;;;;;;;12.82;10.88;;;10.20;99.90;;;;;;4882428;28;90047;-33
2023/04/22 02:10:22;;;;;;;15.50;11.63;;;10.20;99.90;;;;;;4880266;28;89621;-33
2023/04/22 02:12:48;;;;;;;14.70;13.15;;;10.10;99.90;;;;;;4881319;28;88652;-33
2023/04/22 02:15:14;;;;;;;16.73;12.55;;;10.10;99.90;;;;;;4894835;28;89919;-34
2023/04/22 02:17:41;;;;;;;14.48;12.68;;;10.10;99.90;;;;;;4881423;28;88552;-35
2023/04/22 02:20:09;;;;;;;14.15;10.23;;;10.00;99.90;;;;;;4880871;28;89688;-34
2023/04/22 02:22:35;;;;;;;16.27;12.88;;;10.00;99.90;;;;;;4881504;28;89663;-36
2023/04/22 02:25:02;;;;;;;14.00;12.55;;;10.00;99.90;;;;;;4880091;28;89535;-34
2023/04/22 02:27:27;;;;;;;13.45;12.07;;;10.00;99.90;;;;;;4880646;28;89860;-35
2023/04/22 02:29:53;;;;;;;16.80;12.50;;;10.00;99.90;;;;;;4881038;28;91285;-33
2023/04/22 02:32:19;;;;;;;16.98;13.38;;;10.00;99.90;;;;;;4880564;28;89500;-33
2023/04/22 02:34:46;;;;;;;15.55;13.88;;;10.20;99.90;;;;;;4883413;28;89622;-36
2023/04/22 02:37:11;;;;;;;16.25;13.15;;;10.30;99.90;;;;;;4883613;28;88699;-33
2023/04/22 02:39:37;;;;;;;12.80;11.52;;;10.30;99.90;;;;;;4883637;28;90239;-36
2023/04/22 02:42:02;;;;;;;16.25;11.77;;;10.10;99.90;;;;;;4884741;28;89740;-32
2023/04/22 02:44:28;;;;;;;16.08;13.10;;;10.10;99.90;;;;;;4883360;28;89735;-35
2023/04/22 02:46:54;;;;;;;16.20;13.07;;;10.00;99.90;;;;;;4884625;28;88246;-35
2023/04/22 02:49:20;;;;;;;13.77;12.35;;;9.90;99.90;;;;;;4883095;28;90039;-34
2023/04/22 02:51:45;;;;;;;17.92;13.10;;;9.90;99.90;;;;;;4883986;28;90644;-33
2023/04/22 02:54:11;;;;;;;14.18;12.07;;;9.90;99.90;;;;;;4883961;28;90693;-33
2023/04/22 02:56:36;;;;;;;13.07;11.75;;;9.80;99.90;;;;;;4884359;28;89955;-35
2023/04/22 02:59:02;;;;;;;14.07;12.35;;;9.70;99.90;;;;;;4883788;28;90739;-32
2023/04/22 03:01:28;;;;;;;12.70;11.30;;;9.70;99.90;;;;;;4883215;28;89980;-34
2023/04/22 03:03:53;;;;;;;14.38;12.88;;;9.60;99.90;;;;;;4883935;28;89128;-32
2023/04/22 03:06:19;;;;;;;14.25;11.82;;;9.60;99.90;;;;;;4884055;28;89591;-33
2023/04/22 03:08:45;;;;;;;12.43;11.02;;;9.60;99.90;;;;;;4883865;28;90763;-36
2023/04/22 03:11:10;;;;;;;14.25;12.20;;;9.50;99.90;;;;;;4883795;28;89610;-34
2023/04/22 03:13:36;;;;;;;13.25;11.93;;;9.50;99.90;;;;;;4883351;28;89560;-36
2023/04/22 03:16:01;;;;;;;13.60;12.30;;;9.40;99.90;;;;;;4883813;28;90117;-33
2023/04/22 03:18:27;;;;;;;16.45;13.38;;;9.30;99.90;;;;;;4883129;28;88941;-32
2023/04/22 03:20:53;;;;;;;15.13;12.60;;;9.30;99.90;;;;;;4898507;28;89492;-34
2023/04/22 03:23:18;;;;;;;14.95;12.57;;;9.30;99.90;;;;;;4883193;28;90029;-31
2023/04/22 03:25:44;;;;;;;15.95;14.25;;;9.20;99.90;;;;;;4883542;28;89012;-38
2023/04/22 03:28:09;;;;;;;19.50;14.80;;;9.20;99.90;;;;;;4883300;28;91035;-34
2023/04/22 03:30:35;;;;;;;16.98;15.15;;;9.20;99.90;;;;;;4883561;28;89844;-38
2023/04/22 03:33:00;;;;;;;16.25;13.93;;;9.20;99.90;;;;;;4882867;28;88336;-32
2023/04/22 03:35:26;;;;;;;15.95;14.27;;;9.20;99.90;;;;;;4883316;28;89885;-32
2023/04/22 03:37:52;;;;;;;14.50;12.27;;;9.20;99.90;;;;;;4883448;28;90124;-32
2023/04/22 03:40:18;;;;;;;15.15;13.18;;;9.20;99.90;;;;;;4882727;28;91163;-35
2023/04/22 03:42:44;;;;;;;17.88;12.88;;;9.20;99.90;;;;;;4882929;28;90553;-34
2023/04/22 03:45:09;;;;;;;16.60;13.40;;;9.20;99.90;;;;;;4882638;28;88590;-35
2023/04/22 03:47:35;;;;;;;15.13;13.63;;;9.10;99.90;;;;;;4882830;28;91158;-32
2023/04/22 03:50:01;;;;;;;18.13;14.43;;;9.20;99.90;;;;;;4883986;28;89787;-34
2023/04/22 03:52:26;;;;;;;17.65;13.18;;;9.20;99.90;;;;;;4882459;28;90420;-35
2023/04/22 03:54:52;;;;;;;18.20;14.75;;;9.20;99.90;;;;;;4883872;28;88748;-32
2023/04/22 03:57:17;;;;;;;15.50;12.90;;;9.20;99.90;;;;;;4882346;28;90925;-34
2023/04/22 03:59:43;;;;;;;17.30;14.65;;;9.20;99.90;;;;;;4883238;28;90090;-34
2023/04/22 04:02:08;;;;;;;18.33;13.07;;;9.20;99.90;;;;;;4913477;23;89483;-31
2023/04/22 04:04:34;;;;;;;19.08;12.88;;;9.20;99.90;;;;;;4882566;28;88095;-32
2023/04/22 04:07:00;;;;;;;14.52;12.95;;;9.20;99.90;;;;;;4883294;28;89837;-36
2023/04/22 04:09:26;;;;;;;18.02;14.82;;;9.20;99.90;;;;;;4882686;28;90184;-34
2023/04/22 04:11:51;;;;;;;16.17;13.93;;;9.30;99.90;;;;;;4870080;28;89726;-38
2023/04/22 04:14:17;;;;;;;15.70;13.65;;;9.30;99.90;;;;;;4882833;28;89141;-35
2023/04/22 04:16:43;;;;;;;14.98;12.55;;;9.30;99.90;;;;;;4882691;28;90563;-38
2023/04/22 04:19:09;;;;;;;16.60;13.30;;;9.30;99.90;;;;;;4882745;28;89675;-34
2023/04/22 04:21:35;;;;;;;15.02;13.38;;;9.30;99.90;;;;;;4882332;28;89461;-37
2023/04/22 04:24:01;;;;;;;15.85;13.85;;;9.30;99.90;;;;;;4883018;28;88862;-34
2023/04/22 04:26:27;;;;;;;19.60;14.13;;;9.30;99.90;;;;;;4882119;28;91338;-33
2023/04/22 04:28:54;;;;;;;16.13;14.05;;;9.30;99.90;;;;;;4881221;28;90277;-32
2023/04/22 04:31:20;;;;;;;15.75;13.82;;;9.20;99.90;;;;;;4882414;28;90699;-34
2023/04/22 04:33:46;;;;;;;21.38;15.73;;;9.20;99.90;;;;;;4882762;28;90053;-34
2023/04/22 04:36:12;;;;;;;18.23;13.43;;;9.30;99.90;;;;;;4881854;28;90665;-37
2023/04/22 04:38:38;;;;;;;19.95;12.40;;;9.30;99.90;;;;;;4882783;28;89733;-33
2023/04/22 04:41:04;;;;;;;15.88;13.88;;;9.30;99.90;;;;;;4881846;28;89283;-36
2023/04/22 04:43:29;;;;;;;15.77;14.18;;;9.30;99.90;;;;;;4882531;28;89930;-33
2023/04/22 04:45:55;;;;;;;15.52;12.63;;;9.30;99.90;;;;;;4883054;28;90406;-33
2023/04/22 04:48:23;;;;;;;16.50;14.77;;;9.40;99.90;;;;;;4882093;28;89283;-34
2023/04/22 04:50:52;;;;;;;21.08;15.25;;;9.40;99.90;;;;;;4882658;28;89906;-37
2023/04/22 04:53:19;;;;;;;13.82;12.27;;;9.40;99.90;;;;;;4882380;28;90393;-35
2023/04/22 04:55:45;;;;;;;16.80;13.38;;;9.40;99.90;;;;;;4882022;28;90341;-35
2023/04/22 04:58:11;;;;;;;15.38;13.75;;;9.50;99.90;;;;;;4881558;28;89520;-33
2023/04/22 05:00:36;;;;;;;15.80;13.10;;;9.50;99.90;;;;;;4882298;28;89848;-37
2023/04/22 05:03:02;;;;;;;16.60;13.13;;;9.40;99.90;;;;;;4881996;28;89078;-34
2023/04/22 05:05:28;;;;;;;18.20;14.13;;;9.40;99.90;;;;;;4882130;28;90627;-32
2023/04/22 05:07:54;;;;;;;17.50;12.93;;;9.40;99.90;;;;;;4881865;28;90229;-36
2023/04/22 05:10:23;;;;;;;17.58;15.82;;;9.50;99.90;;;;;;4879600;28;90000;-38
2023/04/22 05:12:50;;;;;;;16.90;12.77;;;9.50;99.90;;;;;;4872310;28;89033;-34
2023/04/22 05:15:15;;;;;;;15.27;12.10;;;9.50;99.90;;;;;;4881553;28;89975;-35
2023/04/22 05:17:42;;;;;;;21.13;12.95;;;9.40;99.90;;;;;;4881354;28;90263;-34
2023/04/22 05:20:08;;;;;;;15.55;13.55;;;9.40;99.90;;;;;;4880882;28;90234;-36
2023/04/22 05:22:35;;;;;;;15.68;13.90;;;9.50;99.90;;;;;;4881846;28;90201;-33
2023/04/22 05:25:02;;;;;;;16.10;14.43;;;9.50;99.90;;;;;;4882412;28;89393;-35
2023/04/22 05:27:29;;;;;;;16.10;13.95;;;9.50;99.90;;;;;;4881551;28;90195;-37
2023/04/22 05:29:55;;;;;;;16.13;13.30;;;9.60;99.90;;;;;;4881268;28;90485;-33
2023/04/22 05:32:20;;;;;;;16.25;14.50;;;9.60;99.90;;;;;;4881283;28;89601;-35
2023/04/22 05:34:46;;;;;;;15.40;13.80;;;9.60;99.90;;;;;;4881353;28;89422;-37
2023/04/22 05:37:12;;;;;;;18.88;14.68;;;9.70;99.90;;;;;;4881837;28;89599;-36
2023/04/22 05:39:37;;;;;;;18.65;14.05;;;9.70;99.90;;;;;;4881165;28;90086;-35
2023/04/22 05:42:03;;;;;;;23.50;17.02;;;9.70;99.90;;;;;;4881998;28;90180;-34
2023/04/22 05:44:29;;;;;;;21.20;16.27;;;9.80;99.90;;;;;;4880620;28;90651;-34
2023/04/22 05:46:54;;;;;;;19.08;14.00;;;9.80;99.90;;;;;;4881972;28;89320;-34
2023/04/22 05:49:20;;;;;;;20.83;16.38;;;9.80;99.90;;;;;;4880873;28;89716;-35
2023/04/22 05:51:45;;;;;;;15.98;13.70;;;9.90;99.90;;;;;;4881689;28;88509;-35
2023/04/22 05:54:11;;;;;;;20.70;14.77;;;9.90;99.90;;;;;;4880801;28;90295;-33
2023/04/22 05:56:37;;;;;;;17.58;14.32;;;9.90;99.90;;;;;;4881422;28;89238;-37
2023/04/22 05:59:02;;;;;;;19.83;16.58;;;9.90;99.90;;;;;;4881248;28;89609;-36
2023/04/22 06:01:28;;;;;;;17.90;14.90;;;10.00;99.90;;;;;;4881134;28;89334;-35
2023/04/22 06:03:54;;;;;;;15.25;13.75;;;10.00;99.90;;;;;;4881260;28;89716;-34
2023/04/22 06:06:19;;;;;;;24.73;15.77;;;10.00;99.90;;;;;;4880725;28;91163;-34
2023/04/22 06:08:45;;;;;;;17.20;13.75;;;10.00;99.90;;;;;;4880648;28;89574;-34
2023/04/22 06:11:11;;;;;;;19.35;15.55;;;10.00;99.90;;;;;;4872749;28;88661;-32
2023/04/22 06:13:36;;;;;;;16.83;14.93;;;10.10;99.90;;;;;;4877241;28;90595;-32
2023/04/22 06:16:03;;;;;;;17.70;15.23;;;10.10;99.90;;;;;;4881432;28;89593;-35
2023/04/22 06:18:31;;;;;;;21.00;17.13;;;10.10;99.90;;;;;;4880474;28;89184;-34
2023/04/22 06:20:56;;;;;;;17.10;15.38;;;10.20;99.90;;;;;;4880783;28;88945;-31
2023/04/22 06:23:22;;;;;;;21.35;17.25;;;10.20;99.90;;;;;;4880871;28;89335;-36
2023/04/22 06:25:48;;;;;;;18.20;16.42;;;10.20;99.90;;;;;;4881099;28;89346;-37
2023/04/22 06:28:13;;;;;;;17.20;15.25;;;10.20;99.90;;;;;;4879342;28;90005;-36
2023/04/22 06:30:39;;;;;;;17.20;15.30;;;10.30;99.90;;;;;;4879274;28;89939;-34
2023/04/22 06:33:05;;;;;;;17.23;15.20;;;10.30;99.90;;;;;;4880119;28;89865;-35
2023/04/22 06:35:30;;;;;;;20.35;15.43;;;10.40;99.90;;;;;;4881669;28;90045;-32
2023/04/22 06:37:56;;;;;;;19.90;13.80;;;10.40;99.90;;;;;;4880484;28;89287;-36
2023/04/22 06:40:22;;;;;;;21.30;15.13;;;10.40;99.90;;;;;;4880923;28;88680;-35
2023/04/22 06:42:47;;;;;;;17.92;15.10;;;10.50;99.90;;;;;;4880071;28;91400;-34
2023/04/22 06:45:13;;;;;;;16.92;14.98;;;10.50;99.90;;;;;;4879873;28;89915;-35
2023/04/22 06:47:39;;;;;;;16.77;14.98;;;10.60;99.90;;;;;;4881358;28;90041;-34
2023/04/22 06:50:07;;;;;;;18.60;15.90;;;10.60;99.90;;;;;;4880954;28;88509;-33
2023/04/22 06:52:32;;;;;;;17.25;15.45;;;10.60;99.90;;;;;;4880533;28;90313;-32
2023/04/22 06:54:58;;;;;;;19.33;16.23;;;10.70;99.90;;;;;;4881000;28;90756;-33
2023/04/22 06:57:24;;;;;;;19.13;16.42;;;10.70;99.90;;;;;;4879861;28;90006;-34
2023/04/22 06:59:50;;;;;;;21.20;16.33;;;10.80;99.90;;;;;;4880860;28;89914;-35
2023/04/22 07:02:16;;;;;;;20.73;16.40;;;10.90;99.90;;;;;;4879740;28;90262;-34
2023/04/22 07:04:42;;;;;;;17.30;15.00;;;10.90;99.90;;;;;;4880326;28;89975;-32
2023/04/22 07:07:07;;;;;;;19.23;16.70;;;11.00;99.90;;;;;;4880569;28;89939;-33
2023/04/22 07:09:34;;;;;;;18.27;16.30;;;11.00;99.90;;;;;;4879812;28;87908;-33
2023/04/22 07:12:01;;;;;;;18.55;14.77;;;11.10;99.90;;;;;;4867914;28;92042;-33
2023/04/22 07:14:27;;;;;;;19.35;16.80;;;11.10;99.90;;;;;;4880717;28;90348;-35
2023/04/22 07:16:52;;;;;;;19.27;16.27;;;11.20;99.90;;;;;;4880136;28;89152;-33
2023/04/22 07:19:18;;;;;;;18.55;16.50;;;11.30;99.90;;;;;;4876566;28;89211;-35
2023/04/22 07:21:44;;;;;;;16.42;13.48;;;11.30;99.90;;;;;;4877155;28;90752;-35
2023/04/22 07:24:11;;;;;;;18.13;15.07;;;11.40;99.90;;;;;;4878258;28;90026;-33
2023/04/22 07:26:39;;;;;;;20.63;14.30;;;11.50;99.90;;;;;;4879901;28;89672;-34
2023/04/22 07:29:04;;;;;;;18.63;16.10;;;11.60;99.90;;;;;;4878377;28;88752;-35
2023/04/22 07:31:30;;;;;;;19.13;15.38;;;11.70;99.90;;;;;;4879097;28;90203;-34
2023/04/22 07:33:55;;;;;;;21.30;14.88;;;11.70;99.90;;;;;;4882872;28;90658;-34
2023/04/22 07:36:21;;;;;;;20.35;17.45;;;11.80;99.90;;;;;;4882604;28;89671;-33
2023/04/22 07:38:46;;;;;;;17.58;14.55;;;11.90;99.90;;;;;;4883828;28;89934;-34
2023/04/22 07:41:12;;;;;;;19.58;15.60;;;12.00;99.90;;;;;;4882598;28;91618;-33
2023/04/22 07:43:38;;;;;;;18.50;15.30;;;12.10;99.90;;;;;;4882748;28;90965;-34
2023/04/22 07:46:04;;;;;;;18.35;15.18;;;12.10;99.90;;;;;;4882687;28;91842;-35
2023/04/22 07:48:29;;;;;;;18.80;14.93;;;12.20;99.90;;;;;;4883077;28;89957;-36
2023/04/22 07:50:55;;;;;;;15.07;12.23;;;12.30;99.90;;;;;;4883236;28;89970;-34
2023/04/22 07:53:20;;;;;;;17.17;12.88;;;12.40;99.90;;;;;;4881992;28;89522;-33
2023/04/22 07:55:48;;;;;;;17.13;15.25;;;12.50;99.90;;;;;;4884012;28;89850;-33
2023/04/22 07:58:14;;;;;;;14.90;13.43;;;12.60;99.90;;;;;;4881133;28;89094;-35
2023/04/22 08:00:40;;;;;;;16.83;12.77;;;12.70;99.90;;;;;;4882567;28;90370;-32
2023/04/22 08:03:06;;;;;;;17.27;13.27;;;12.80;99.90;;;;;;4882933;28;90398;-34
2023/04/22 08:05:31;;;;;;;15.32;12.45;;;12.90;99.90;;;;;;4882275;28;88974;-34
2023/04/22 08:07:57;;;;;;;13.02;11.68;;;13.00;99.90;;;;;;4883361;28;89964;-36
2023/04/22 08:10:22;;;;;;;14.23;12.73;;;13.10;99.90;;;;;;4880094;28;90405;-33
2023/04/22 08:12:48;;;;;;;14.43;12.95;;;13.30;99.90;;;;;;4872619;28;89765;-33
2023/04/22 08:15:14;;;;;;;14.75;13.13;;;13.40;99.90;;;;;;4882239;28;88354;-33
2023/04/22 08:17:39;;;;;;;15.80;13.20;;;13.60;99.90;;;;;;4877049;28;90167;-34
2023/04/22 08:20:06;;;;;;;13.15;11.75;;;13.80;99.90;;;;;;4881027;28;90131;-35
2023/04/22 08:22:32;;;;;;;18.88;13.05;;;13.90;99.90;;;;;;4878617;28;90718;-32
2023/04/22 08:24:58;;;;;;;14.93;13.35;;;14.20;99.90;;;;;;4867897;28;89463;-35
2023/04/22 08:27:24;;;;;;;14.70;13.20;;;14.30;99.90;;;;;;4882577;28;88327;-33
2023/04/22 08:29:50;;;;;;;14.50;12.93;;;14.50;99.90;;;;;;4889506;28;90265;-33
2023/04/22 08:32:18;;;;;;;14.60;12.70;;;14.70;99.90;;;;;;4883017;28;90521;-31
2023/04/22 08:34:44;;;;;;;15.65;13.70;;;14.80;99.90;;;;;;4886344;28;90003;-32
2023/04/22 08:37:10;;;;;;;13.90;12.30;;;15.10;99.90;;;;;;4883833;28;89715;-32
2023/04/22 08:39:35;;;;;;;15.02;12.45;;;15.50;99.90;;;;;;4879778;28;89817;-35
2023/04/22 08:42:01;;;;;;;14.88;12.40;;;15.70;99.90;;;;;;4879454;28;88748;-33
2023/04/22 08:44:28;;;;;;;17.65;14.63;;;15.80;99.90;;;;;;4879516;28;90060;-32
2023/04/22 08:46:55;;;;;;;14.43;12.73;;;15.90;99.90;;;;;;4879791;28;89162;-30
2023/04/22 08:49:23;;;;;;;13.80;12.40;;;16.00;99.90;;;;;;4879864;28;89112;-31
2023/04/22 08:51:49;;;;;;;12.45;11.10;;;16.30;99.90;;;;;;4878930;28;89613;-31
2023/04/22 08:54:15;;;;;;;13.88;12.60;;;16.60;99.90;;;;;;4879238;28;89877;-33
2023/04/22 08:56:43;;;;;;;15.57;14.05;;;16.80;99.90;;;;;;4878841;28;90623;-33
2023/04/22 08:59:10;;;;;;;16.55;13.05;;;16.90;99.90;;;;;;4878941;28;90455;-32
2023/04/22 09:01:38;;;;;;;14.32;12.40;;;16.90;99.90;;;;;;4879022;28;90524;-29
2023/04/22 09:04:04;;;;;;;13.20;11.70;;;17.10;99.90;;;;;;4878926;28;89253;-34
2023/04/22 09:06:31;;;;;;;13.82;12.18;;;17.30;99.90;;;;;;4879708;28;87787;-30
2023/04/22 09:08:58;;;;;;;13.00;11.70;;;17.60;99.90;;;;;;4878908;28;90090;-33
2023/04/22 09:11:29;;;;;;;13.00;11.73;;;17.90;99.90;;;;;;4866632;28;88559;-34
2023/04/22 09:13:56;;;;;;;14.10;12.73;;;18.10;99.90;;;;;;4877424;28;88936;-32
2023/04/22 09:16:22;;;;;;;20.83;12.75;;;18.10;99.90;;;;;;4879125;28;87528;-29
2023/04/22 09:18:49;;;;;;;13.15;11.95;;;18.30;99.90;;;;;;4879394;28;89739;-30
2023/04/22 09:21:15;;;;;;;12.32;11.13;;;18.30;99.90;;;;;;4878428;28;91435;-29
2023/04/22 09:23:52;;;;;;;14.15;11.07;;;18.60;99.90;;;;;;4878769;28;90455;-34
2023/04/22 09:26:20;;;;;;;14.57;13.00;;;18.60;99.90;;;;;;4880019;28;89655;-32
2023/04/22 09:28:54;;;;;;;11.82;10.50;;;18.80;99.90;;;;;;4879852;28;90582;-31
2023/04/22 09:31:20;;;;;;;12.10;10.90;;;18.70;99.90;;;;;;4879319;28;88957;-34
2023/04/22 09:33:58;;;;;;;11.90;10.70;;;18.90;99.90;;;;;;4879921;28;89654;-30
2023/04/22 09:36:28;;;;;;;14.80;12.43;;;18.90;99.90;;;;;;4879578;28;88590;-31
2023/04/22 09:39:06;;;;;;;13.23;11.93;;;18.90;99.90;;;;;;4879262;28;90538;-34
2023/04/22 09:41:34;;;;;;;13.07;11.80;;;18.90;99.90;;;;;;4879762;28;88694;-31
2023/04/22 09:44:02;;;;;;;13.30;11.98;;;19.00;99.90;;;;;;4878521;28;90922;-31
2023/04/22 09:46:29;;;;;;;12.57;11.38;;;19.10;99.90;;;;;;4878785;28;90363;-32
2023/04/22 09:48:57;;;;;;;12.10;10.75;;;19.30;99.90;;;;;;4878965;28;90134;-32
2023/04/22 09:51:24;;;;;;;12.57;11.45;;;19.10;99.90;;;;;;4866873;28;89606;-32
2023/04/22 09:53:58;;;;;;;11.38;10.27;;;19.10;99.90;;;;;;4879562;28;89719;-31
2023/04/22 09:56:44;;;;;;;9.30;8.50;;;19.40;99.90;;;;;;4870934;28;89901;-33
2023/04/22 09:59:10;;;;;;;8.55;7.70;;;19.60;99.90;;;;;;4876529;28;89625;-32
2023/04/22 10:01:41;;;;;;;10.52;8.23;;;19.60;99.90;;;;;;4878068;28;89765;-30
2023/04/22 10:04:13;;;;;;;7.65;6.82;;;19.70;98.80;;;;;;4879359;28;91451;-32
2023/04/22 10:06:39;;;;;;;9.27;7.43;;;19.60;95.50;;;;;;4879977;28;88360;-31
2023/04/22 10:09:05;;;;;;;7.90;6.22;;;19.40;96.90;;;;;;4879214;28;90229;-29
2023/04/22 10:11:32;;;;;;;6.40;5.80;;;19.40;93.70;;;;;;4878688;28;90337;-30
2023/04/22 10:13:59;;;;;;;8.05;7.05;;;19.50;91.10;;;;;;4878322;28;90410;-31
2023/04/22 10:16:27;;;;;;;9.53;7.83;;;19.70;92.80;;;;;;4879538;28;89477;-33
2023/04/22 10:18:55;;;;;;;8.65;7.78;;;19.70;93.60;;;;;;4878712;28;90395;-30
2023/04/22 10:21:22;;;;;;;10.13;9.07;;;19.70;96.50;;;;;;4879076;28;88803;-29
2023/04/22 10:23:49;;;;;;;8.23;7.47;;;19.80;91.90;;;;;;4878761;28;89925;-34
2023/04/22 10:26:42;;;;;;;8.93;8.07;;;19.80;93.70;;;;;;4878957;28;88437;-32
2023/04/22 10:29:15;;;;;;;7.85;7.05;;;19.80;92.50;;;;;;4868673;28;90109;-32
2023/04/22 10:31:41;;;;;;;9.38;8.57;;;19.80;90.10;;;;;;4879124;28;89780;-30
2023/04/22 10:34:14;;;;;;;8.90;8.00;;;19.70;83.80;;;;;;4878432;28;89850;-30
2023/04/22 10:36:59;;;;;;;9.00;8.18;;;19.80;99.90;;;;;;4865889;28;89001;-30
2023/04/22 10:39:26;;;;;;;10.35;8.55;;;19.60;85.50;;;;;;4877705;28;90694;-34
2023/04/22 10:42:01;;;;;;;8.30;7.60;;;19.90;90.40;;;;;;4879114;28;89340;-33
2023/04/22 10:44:29;;;;;;;8.15;7.45;;;20.10;92.40;;;;;;4877982;28;89350;-30
2023/04/22 10:46:56;;;;;;;7.85;7.10;;;20.00;84.60;;;;;;4878859;28;87681;-33
2023/04/22 10:49:23;;;;;;;7.57;6.85;;;20.10;83.30;;;;;;4878468;28;90600;-32
2023/04/22 10:51:50;;;;;;;8.55;7.70;;;20.20;84.80;;;;;;4874484;28;91486;-32
2023/04/22 10:54:38;;;;;;;8.65;7.88;;;20.40;80.10;;;;;;4874973;28;89874;-31
2023/04/22 10:57:09;;;;;;;8.70;7.80;;;20.20;84.10;;;;;;4882104;28;89105;-34
2023/04/22 10:59:41;;;;;;;7.53;6.82;;;20.30;85.80;;;;;;4869462;28;89561;-32
2023/04/22 11:02:08;;;;;;;9.85;8.70;;;20.50;81.80;;;;;;4880093;28;90681;-30
2023/04/22 11:04:34;;;;;;;9.43;8.63;;;20.40;78.70;;;;;;4881684;28;90460;-31
2023/04/22 11:07:30;;;;;;;9.50;8.70;;;20.40;89.40;;;;;;4882318;28;89374;-32
2023/04/22 11:10:09;;;;;;;10.68;8.93;;;20.40;85.00;;;;;;4881331;28;90309;-30
2023/04/22 11:12:37;;;;;;;8.70;7.90;;;20.40;79.10;;;;;;4881302;28;89538;-31
2023/04/22 11:15:17;;;;;;;10.85;9.80;;;20.40;80.30;;;;;;4882431;28;89562;-32
2023/04/22 11:17:46;;;;;;;10.18;7.97;;;20.40;83.50;;;;;;4882271;28;88516;-29
2023/04/22 11:20:16;;;;;;;8.52;7.57;;;20.50;91.60;;;;;;4881397;28;88548;-32
2023/04/22 11:22:43;;;;;;;11.10;9.38;;;20.70;88.80;;;;;;4881734;28;89860;-34
2023/04/22 11:25:09;;;;;;;8.10;7.40;;;20.70;80.70;;;;;;4881202;28;90265;-30
2023/04/22 11:27:36;;;;;;;10.32;9.43;;;20.70;80.50;;;;;;4881254;28;90530;-32
2023/04/22 11:30:10;;;;;;;9.73;8.83;;;20.70;80.80;;;;;;4892933;28;90451;-33
2023/04/22 11:32:38;;;;;;;9.18;8.27;;;20.80;82.30;;;;;;4881490;28;89778;-35
2023/04/22 11:35:08;;;;;;;;;;;20.90;85.00;;;;;;4882664;28;90088;-30
2023/04/22 11:37:44;;;;;;;9.02;8.30;;;20.70;79.60;;;;;;4882921;28;89990;-33
2023/04/22 11:40:12;;;;;;;10.15;9.23;;;20.70;79.80;;;;;;4869864;28;89887;-37
2023/04/22 11:42:38;;;;;;;;;;;20.60;82.60;;;;;;4881892;28;89763;-31
2023/04/22 11:45:05;;;;;;;9.63;8.70;;;20.50;84.30;;;;;;4883156;28;89054;-33
2023/04/22 11:47:31;;;;;;;10.03;9.23;;;20.70;82.50;;;;;;4881817;28;89948;-32
2023/04/22 11:50:08;;;;;;;9.95;9.10;;;20.90;81.30;;;;;;4881178;28;90511;-31
2023/04/22 11:52:49;;;;;;;10.25;9.25;;;20.80;80.40;;;;;;4881216;28;90869;-32
2023/04/22 11:55:19;;;;;;;10.23;9.30;;;20.80;76.70;;;;;;4881834;28;89370;-34
2023/04/22 11:57:50;;;;;;;10.55;9.45;;;20.60;79.00;;;;;;4882286;28;87977;-29
2023/04/22 12:00:16;;;;;;;9.95;9.05;;;20.50;81.50;;;;;;4881575;28;90313;-32
2023/04/22 12:02:44;;;;;;;10.38;9.38;;;20.40;80.70;;;;;;4880541;28;88151;-34
2023/04/22 12:05:13;;;;;;;9.73;8.93;;;20.30;80.70;;;;;;4880765;28;90194;-33
2023/04/22 12:07:41;;;;;;;10.10;9.10;;;20.20;80.10;;;;;;4881149;28;88968;-30
2023/04/22 12:10:07;;;;;;;10.52;9.52;;;20.30;81.10;;;;;;4881025;28;90697;-34
2023/04/22 12:12:35;;;;;;;11.93;10.57;;;20.20;80.60;;;;;;4869398;28;89827;-32
2023/04/22 12:15:10;;;;;;;;;;;20.30;83.40;;;;;;4881065;28;88717;-34
2023/04/22 12:17:36;;;;;;;9.73;8.90;;;20.30;82.10;;;;;;4882823;28;89596;-32
2023/04/22 12:20:03;;;;;;;10.95;9.95;;;20.30;83.60;;;;;;4880307;28;90439;-34
2023/04/22 12:22:29;;;;;;;10.63;9.52;;;20.30;80.20;;;;;;4880883;28;89850;-31
2023/04/22 12:24:59;;;;;;;12.70;11.43;;;20.20;82.80;;;;;;4881050;28;90482;-33
2023/04/22 12:27:25;;;;;;;10.05;9.05;;;20.10;83.50;;;;;;4880936;28;89497;-33
2023/04/22 12:29:52;;;;;;;10.90;9.85;;;20.10;84.50;;;;;;4880946;28;91286;-32
2023/04/22 12:32:22;;;;;;;10.60;9.27;;;19.90;83.80;;;;;;4880972;28;89721;-32